This is the latest recevied weather packets stored in our database for station/object WW1TA. If no packets are shown the sender has not sent any weather packets the latest 1 day(s).
| Time | Temp. | Humidity | Pressure | Rain* | Wind** | Luminosity | Snow |
|---|---|---|---|---|---|---|---|
| 1778024183 | 22.78° C | 59% | 1018.4 hPa | 0 mm | 0 m/s | 21 W/m² | - |
| 1778023880 | 22.78° C | 59% | 1018.5 hPa | 0 mm | 0 m/s | 24 W/m² | - |
| 1778023578 | 22.78° C | 57% | 1018.4 hPa | 0 mm | 0 m/s | 28 W/m² | - |
| 1778023275 | 22.78° C | 58% | 1018.4 hPa | 0 mm | 0 m/s | 33 W/m² | - |
| 1778022972 | 22.22° C | 57% | 1018.4 hPa | 0 mm | 1.79 m/s, 240° | 37 W/m² | - |
| 1778022671 | 22.78° C | 58% | 1018.6 hPa | 0 mm | 0 m/s | 42 W/m² | - |
| 1778022368 | 23.33° C | 57% | 1018.7 hPa | 0 mm | 0.89 m/s, 255° | 45 W/m² | - |
| 1778022064 | 23.33° C | 57% | 1018.7 hPa | 0 mm | 0 m/s | 72 W/m² | - |
| 1778021761 | 23.33° C | 56% | 1018.6 hPa | 0 mm | 0 m/s | 86 W/m² | - |
| 1778021457 | 23.33° C | 55% | 1018.6 hPa | 0 mm | 0.45 m/s, 264° | 94 W/m² | - |
| 1778021154 | 23.89° C | 55% | 1018.5 hPa | 0 mm | 0.45 m/s, 295° | 113 W/m² | - |
| 1778020851 | 23.33° C | 54% | 1018.5 hPa | 0 mm | 0.89 m/s, 237° | 131 W/m² | - |
| 1778020548 | 23.89° C | 53% | 1018.7 hPa | 0 mm | 0.89 m/s, 265° | 139 W/m² | - |
| 1778020244 | 24.44° C | 53% | 1018.6 hPa | 0 mm | 0 m/s | 172 W/m² | - |
| 1778019941 | 23.89° C | 53% | 1018.8 hPa | 0 mm | 0.45 m/s, 280° | 179 W/m² | - |
| 1778019637 | 24.44° C | 53% | 1018.9 hPa | 0 mm | 0.89 m/s, 293° | 165 W/m² | - |
| 1778019334 | 23.33° C | 54% | 1018.6 hPa | 0 mm | 0.89 m/s, 214° | 231 W/m² | - |
| 1778019031 | 23.33° C | 54% | 1018.7 hPa | 0 mm | 0.45 m/s, 260° | 231 W/m² | - |
| 1778018728 | 25° C | 51% | 1018.8 hPa | 0 mm | 0.45 m/s, 274° | 287 W/m² | - |
| 1778018426 | 23.89° C | 54% | 1019 hPa | 0 mm | 0 m/s | 318 W/m² | - |
| 1778018126 | 23.33° C | 57% | 1018.9 hPa | 0 mm | 0 m/s | 111 W/m² | - |
| 1778017821 | 23.33° C | 56% | 1018.7 hPa | 0 mm | 0.89 m/s, 227° | 115 W/m² | - |
| 1778017519 | 23.89° C | 56% | 1018.8 hPa | 0 mm | 0.89 m/s, 260° | 335 W/m² | - |
| 1778017216 | 23.89° C | 55% | 1019.1 hPa | 0 mm | 0.45 m/s, 262° | 142 W/m² | - |
| 1778016914 | 23.89° C | 54% | 1019 hPa | 0 mm | 0 m/s | 399 W/m² | - |
* Rain latest hour (hover to see other rain measurements)
** Current wind speed in m/s (hover to see current wind gust speed)